createdAt,value
2018-11-06T00:00:51.127Z,53.10
2018-11-06T00:03:25.050Z,27.47
2018-11-06T00:05:53.816Z,59.33
2018-11-06T00:08:22.296Z,48.43
2018-11-06T00:10:50.499Z,37.30
2018-11-06T00:13:18.637Z,64.60
2018-11-06T00:15:46.814Z,47.87
2018-11-06T00:18:14.994Z,29.23
2018-11-06T00:20:43.192Z,43.33
2018-11-06T00:23:11.344Z,33.70
2018-11-06T00:25:39.555Z,38.70
2018-11-06T00:28:07.811Z,38.90
2018-11-06T00:30:36.036Z,45.97
2018-11-06T00:33:04.345Z,39.97
2018-11-06T00:35:32.515Z,39.40
2018-11-06T00:38:00.723Z,32.60
2018-11-06T00:40:28.908Z,24.20
2018-11-06T00:42:57.074Z,28.90
2018-11-06T00:45:25.221Z,21.43
2018-11-06T00:47:53.453Z,23.43
2018-11-06T00:50:21.638Z,22.57
2018-11-06T00:52:49.802Z,25.30
2018-11-06T00:55:18.013Z,20.90
2018-11-06T00:57:46.252Z,25.47
2018-11-06T01:00:16.787Z,22.63
2018-11-06T01:02:45.251Z,23.10
2018-11-06T01:05:14.243Z,22.53
2018-11-06T01:07:43.497Z,21.87
2018-11-06T01:10:11.938Z,29.40
2018-11-06T01:12:40.630Z,22.43
2018-11-06T01:15:10.856Z,28.50
2018-11-06T01:17:39.063Z,25.63
2018-11-06T01:20:10.368Z,22.10
2018-11-06T01:22:38.590Z,22.93
2018-11-06T01:25:07.679Z,23.87
2018-11-06T01:27:42.684Z,21.43
2018-11-06T01:30:15.118Z,23.53
2018-11-06T01:32:44.102Z,26.60
2018-11-06T01:35:13.241Z,20.90
2018-11-06T01:37:42.147Z,20.90
2018-11-06T01:40:12.227Z,20.43
2018-11-06T01:42:40.909Z,24.63
2018-11-06T01:45:11.111Z,22.53
2018-11-06T01:47:39.520Z,22.37
2018-11-06T01:50:09.249Z,23.40
2018-11-06T01:52:37.559Z,25.50
2018-11-06T01:55:06.855Z,24.70
2018-11-06T01:57:35.075Z,22.60
2018-11-06T02:00:03.292Z,27.73
2018-11-06T02:02:31.516Z,30.30
2018-11-06T02:04:59.729Z,25.87
2018-11-06T02:07:27.953Z,24.70
2018-11-06T02:09:56.761Z,28.50
2018-11-06T02:12:25.101Z,23.60
2018-11-06T02:14:53.297Z,27.70
2018-11-06T02:17:21.521Z,27.53
2018-11-06T02:19:49.761Z,24.87
2018-11-06T02:22:18.080Z,27.23
2018-11-06T02:24:46.346Z,25.77
2018-11-06T02:27:14.545Z,28.53
2018-11-06T02:29:42.701Z,25.40
2018-11-06T02:32:11.022Z,27.50
2018-11-06T02:34:39.326Z,24.40
2018-11-06T02:37:07.574Z,23.53
2018-11-06T02:39:35.745Z,27.23
2018-11-06T02:42:04.022Z,27.17
2018-11-06T02:44:32.189Z,32.90
2018-11-06T02:47:00.420Z,28.93
2018-11-06T02:49:28.669Z,26.33
2018-11-06T02:51:56.840Z,36.63
2018-11-06T02:54:25.054Z,26.00
2018-11-06T02:56:53.273Z,24.97
2018-11-06T02:59:21.512Z,28.17
2018-11-06T03:01:49.753Z,23.93
2018-11-06T03:04:17.995Z,30.57
2018-11-06T03:06:46.178Z,26.60
2018-11-06T03:09:14.374Z,27.70
2018-11-06T03:11:42.617Z,28.40
2018-11-06T03:14:10.838Z,25.67
2018-11-06T03:16:39.194Z,28.00
2018-11-06T03:19:07.426Z,30.80
2018-11-06T03:21:35.630Z,25.93
2018-11-06T03:24:04.168Z,25.73
2018-11-06T03:26:32.398Z,28.00
2018-11-06T03:29:00.662Z,24.13
2018-11-06T03:31:28.862Z,26.70
2018-11-06T03:33:57.056Z,31.37
2018-11-06T03:36:25.250Z,27.80
2018-11-06T03:38:53.438Z,31.60
2018-11-06T03:41:21.652Z,29.90
2018-11-06T03:43:49.968Z,43.73
2018-11-06T03:46:18.234Z,33.70
2018-11-06T03:48:46.548Z,34.37
2018-11-06T03:51:14.786Z,26.80
2018-11-06T03:53:43.012Z,31.30
2018-11-06T03:56:11.276Z,32.20
2018-11-06T03:58:39.569Z,35.40
2018-11-06T04:01:08.076Z,31.47
2018-11-06T04:03:36.333Z,33.87
2018-11-06T04:06:04.616Z,32.67
2018-11-06T04:08:32.852Z,33.63
2018-11-06T04:11:02.059Z,30.20
2018-11-06T04:13:30.272Z,31.23
2018-11-06T04:15:58.478Z,40.13
2018-11-06T04:18:26.711Z,33.87
2018-11-06T04:20:54.940Z,39.47
2018-11-06T04:23:23.205Z,31.93
2018-11-06T04:25:51.409Z,38.33
2018-11-06T04:28:19.707Z,32.87
2018-11-06T04:30:47.987Z,33.87
2018-11-06T04:33:16.218Z,34.53
2018-11-06T04:35:44.475Z,36.20
2018-11-06T04:38:12.655Z,36.83
2018-11-06T04:40:40.913Z,32.33
2018-11-06T04:43:09.171Z,44.43
2018-11-06T04:45:37.341Z,35.97
2018-11-06T04:48:05.746Z,42.83
2018-11-06T04:50:33.950Z,39.63
2018-11-06T04:53:02.241Z,35.83
2018-11-06T04:55:30.488Z,40.83
2018-11-06T04:57:58.729Z,35.13
2018-11-06T05:00:26.946Z,35.60
2018-11-06T05:02:55.301Z,39.70
2018-11-06T05:05:23.569Z,40.43
2018-11-06T05:07:51.747Z,38.40
2018-11-06T05:10:19.981Z,38.73
2018-11-06T05:12:48.215Z,40.53
2018-11-06T05:15:16.609Z,39.00
2018-11-06T05:17:44.867Z,39.27
2018-11-06T05:20:15.266Z,40.80
2018-11-06T05:22:44.310Z,47.60
2018-11-06T05:25:12.579Z,43.30
2018-11-06T05:27:40.802Z,44.50
2018-11-06T05:30:10.103Z,56.73
2018-11-06T05:32:38.574Z,43.87
2018-11-06T05:35:07.322Z,44.73
2018-11-06T05:37:35.634Z,45.10
2018-11-06T05:40:49.188Z,51.80
2018-11-06T05:43:17.319Z,40.30
2018-11-06T05:45:45.633Z,47.47
2018-11-06T05:48:13.910Z,42.90
2018-11-06T05:50:42.142Z,50.53
2018-11-06T05:53:10.406Z,44.07
2018-11-06T05:55:38.506Z,42.13
2018-11-06T05:58:06.690Z,44.33
2018-11-06T06:00:34.942Z,43.60
2018-11-06T06:03:03.118Z,56.83
2018-11-06T06:05:31.276Z,44.03
2018-11-06T06:07:59.494Z,65.43
2018-11-06T06:10:27.668Z,66.23
2018-11-06T06:12:55.836Z,51.13
2018-11-06T06:15:24.010Z,52.23
2018-11-06T06:17:52.350Z,68.30
2018-11-06T06:20:20.550Z,74.40
2018-11-06T06:22:48.700Z,49.73
2018-11-06T06:25:16.874Z,49.60
2018-11-06T06:27:45.022Z,51.80
2018-11-06T06:30:15.194Z,46.77
2018-11-06T06:32:43.316Z,52.70
2018-11-06T06:35:11.530Z,50.50
2018-11-06T06:37:39.599Z,48.60
2018-11-06T06:40:11.133Z,44.53
2018-11-06T06:42:39.346Z,49.43
2018-11-06T06:45:09.362Z,50.20
2018-11-06T06:47:37.520Z,54.07
2018-11-06T06:50:12.584Z,48.90
2018-11-06T06:52:41.099Z,60.60
2018-11-06T06:55:11.019Z,59.73
2018-11-06T06:57:40.162Z,61.53
2018-11-06T07:00:10.198Z,51.20
2018-11-06T07:02:38.546Z,50.93
2018-11-06T07:05:07.636Z,45.73
2018-11-06T07:07:36.120Z,62.03
2018-11-06T07:10:04.964Z,51.63
2018-11-06T07:12:33.108Z,52.77
2018-11-06T07:15:01.275Z,54.47
2018-11-06T07:17:29.502Z,50.63
2018-11-06T07:19:57.786Z,52.30
2018-11-06T07:22:26.026Z,48.97
2018-11-06T07:24:54.198Z,48.53
2018-11-06T07:27:22.330Z,50.43
2018-11-06T07:29:50.821Z,52.53
2018-11-06T07:32:19.010Z,45.97
2018-11-06T07:34:47.278Z,46.57
2018-11-06T07:37:15.329Z,47.40
2018-11-06T07:39:43.514Z,49.20
2018-11-06T07:42:11.686Z,48.43
2018-11-06T07:44:40.031Z,54.40
2018-11-06T07:47:08.299Z,56.50
2018-11-06T07:49:36.443Z,51.87
2018-11-06T07:52:05.258Z,53.43
2018-11-06T07:54:33.476Z,53.80
2018-11-06T07:57:01.695Z,53.43
2018-11-06T07:59:29.834Z,52.93
2018-11-06T08:01:57.948Z,52.70
2018-11-06T08:04:26.509Z,59.33
2018-11-06T08:06:54.601Z,53.77
2018-11-06T08:09:22.779Z,52.87
2018-11-06T08:11:50.925Z,47.33
2018-11-06T08:14:19.257Z,47.50
2018-11-06T08:16:48.585Z,44.67
2018-11-06T08:19:16.731Z,49.50
2018-11-06T08:21:44.915Z,53.10
2018-11-06T08:24:13.139Z,45.93
2018-11-06T08:26:41.313Z,53.60
2018-11-06T08:29:09.488Z,44.17
2018-11-06T08:31:37.967Z,47.63
2018-11-06T08:34:05.973Z,47.57
2018-11-06T08:36:34.212Z,46.60
2018-11-06T08:39:02.427Z,51.90
2018-11-06T08:41:30.576Z,47.33
2018-11-06T08:43:58.685Z,46.83
2018-11-06T08:46:26.900Z,48.67
2018-11-06T08:48:55.031Z,47.40
2018-11-06T08:51:23.253Z,48.27
2018-11-06T08:53:51.376Z,42.67
2018-11-06T08:56:19.591Z,45.40
2018-11-06T08:58:47.763Z,43.63
2018-11-06T09:01:15.913Z,45.67
2018-11-06T09:03:44.083Z,44.23
2018-11-06T09:06:12.289Z,45.67
2018-11-06T09:08:40.458Z,47.47
2018-11-06T09:11:08.770Z,41.93
2018-11-06T09:13:37.029Z,42.33
2018-11-06T09:16:05.795Z,44.13
2018-11-06T09:18:34.003Z,40.60
2018-11-06T09:21:02.263Z,37.83
2018-11-06T09:23:30.396Z,36.00
2018-11-06T09:25:58.558Z,41.60
2018-11-06T09:28:26.747Z,33.60
2018-11-06T09:30:54.976Z,34.00
2018-11-06T09:33:23.077Z,38.53
2018-11-06T09:35:51.271Z,36.47
2018-11-06T09:38:19.503Z,34.97
2018-11-06T09:40:47.680Z,39.37
2018-11-06T09:43:15.659Z,37.20
2018-11-06T09:45:43.601Z,35.57
2018-11-06T09:48:11.758Z,36.20
2018-11-06T09:50:39.931Z,37.93
2018-11-06T09:53:08.121Z,31.77
2018-11-06T09:55:36.280Z,37.97
2018-11-06T09:58:04.724Z,37.67
2018-11-06T10:00:32.994Z,34.23
2018-11-06T10:03:01.199Z,35.53
2018-11-06T10:05:29.359Z,33.90
2018-11-06T10:07:57.669Z,39.73
2018-11-06T10:10:26.722Z,35.17
2018-11-06T10:12:54.907Z,41.53
2018-11-06T10:15:23.051Z,33.03
2018-11-06T10:17:51.695Z,34.80
2018-11-06T10:20:20.712Z,32.90
2018-11-06T10:22:48.892Z,40.93
2018-11-06T10:25:17.112Z,33.63
2018-11-06T10:27:45.272Z,32.97
2018-11-06T10:30:15.565Z,33.70
2018-11-06T10:32:43.713Z,31.87
2018-11-06T10:35:12.212Z,33.10
2018-11-06T10:37:40.365Z,34.10
2018-11-06T10:40:13.240Z,35.90
2018-11-06T10:42:41.723Z,35.50
2018-11-06T10:45:09.977Z,33.47
2018-11-06T10:47:38.706Z,31.77
2018-11-06T10:50:07.748Z,34.17
2018-11-06T10:52:35.924Z,32.40
2018-11-06T10:55:04.174Z,32.87
2018-11-06T10:57:32.350Z,31.27
2018-11-06T11:00:00.532Z,30.87
2018-11-06T11:02:34.162Z,39.77
2018-11-06T11:05:02.291Z,35.13
2018-11-06T11:07:30.564Z,30.87
2018-11-06T11:09:58.746Z,30.67
2018-11-06T11:12:26.975Z,31.83
2018-11-06T11:14:55.122Z,29.20
2018-11-06T11:17:23.408Z,34.43
2018-11-06T11:19:51.564Z,31.33
2018-11-06T11:22:19.789Z,36.70
2018-11-06T11:24:48.143Z,32.77
2018-11-06T11:27:16.382Z,31.67
2018-11-06T11:29:44.710Z,30.13
2018-11-06T11:32:12.943Z,26.87
2018-11-06T11:34:41.164Z,30.80
2018-11-06T11:37:09.368Z,28.63
2018-11-06T11:39:37.518Z,31.47
2018-11-06T11:42:06.558Z,40.07
2018-11-06T11:44:34.966Z,26.90
2018-11-06T11:47:03.361Z,23.30
2018-11-06T11:49:31.645Z,26.40
2018-11-06T11:52:00.290Z,26.20
2018-11-06T11:54:28.687Z,26.70
2018-11-06T11:56:57.034Z,27.17
2018-11-06T11:59:25.386Z,31.40
2018-11-06T12:01:53.903Z,27.37
2018-11-06T12:04:22.279Z,25.53
2018-11-06T12:06:50.680Z,26.70
2018-11-06T12:09:19.133Z,23.83
2018-11-06T12:11:47.500Z,29.10
2018-11-06T12:14:15.897Z,29.30
2018-11-06T12:16:44.138Z,36.60
2018-11-06T12:19:12.478Z,27.50
2018-11-06T12:21:40.825Z,31.93
2018-11-06T12:24:09.278Z,31.53
2018-11-06T12:26:37.515Z,28.43
2018-11-06T12:29:06.105Z,34.83
2018-11-06T12:31:34.343Z,30.87
2018-11-06T12:34:02.547Z,33.07
2018-11-06T12:36:30.828Z,32.63
2018-11-06T12:38:58.998Z,26.40
2018-11-06T12:41:27.379Z,30.37
2018-11-06T12:43:55.789Z,31.47
2018-11-06T12:46:24.063Z,27.83
2018-11-06T12:48:52.278Z,30.17
2018-11-06T12:51:20.616Z,31.23
2018-11-06T12:53:48.885Z,27.20
2018-11-06T12:56:17.296Z,27.17
2018-11-06T12:58:45.581Z,29.33
2018-11-06T13:01:13.837Z,28.27
2018-11-06T13:03:42.097Z,32.60
2018-11-06T13:06:10.311Z,28.87
2018-11-06T13:08:38.655Z,30.30
2018-11-06T13:11:06.932Z,31.13
2018-11-06T13:13:35.571Z,32.77
2018-11-06T13:16:04.497Z,30.17
2018-11-06T13:18:33.670Z,27.13
2018-11-06T13:21:02.289Z,28.10
2018-11-06T13:23:30.877Z,30.23
2018-11-06T13:25:59.186Z,28.57
2018-11-06T13:28:27.683Z,29.90
2018-11-06T13:30:55.952Z,31.03
2018-11-06T13:33:24.173Z,28.33
2018-11-06T13:35:52.411Z,31.27
2018-11-06T13:38:20.657Z,27.27
2018-11-06T13:40:48.939Z,28.33
2018-11-06T13:43:17.338Z,29.87
2018-11-06T13:45:46.181Z,26.17
2018-11-06T13:48:14.293Z,30.10
2018-11-06T13:50:42.574Z,26.60
2018-11-06T13:53:10.888Z,36.93
2018-11-06T13:55:40.348Z,32.67
2018-11-06T13:58:08.738Z,26.43
2018-11-06T14:00:37.021Z,36.27
2018-11-06T14:03:05.462Z,28.63
2018-11-06T14:05:33.709Z,30.30
2018-11-06T14:08:02.034Z,35.83
2018-11-06T14:10:30.461Z,29.30
2018-11-06T14:12:58.907Z,28.73
2018-11-06T14:15:27.164Z,28.90
2018-11-06T14:17:55.468Z,32.57
2018-11-06T14:20:24.048Z,28.57
2018-11-06T14:22:52.256Z,29.07
2018-11-06T14:25:20.570Z,33.00
2018-11-06T14:27:49.627Z,35.10
2018-11-06T14:30:19.162Z,39.70
2018-11-06T14:32:49.005Z,36.17
2018-11-06T14:35:18.394Z,36.27
2018-11-06T14:37:47.192Z,39.20
2018-11-06T14:40:16.106Z,31.63
2018-11-06T14:42:44.969Z,35.00
2018-11-06T14:45:14.480Z,36.13
2018-11-06T14:47:42.786Z,34.57
2018-11-06T14:50:11.512Z,28.93
2018-11-06T14:52:39.774Z,33.03
2018-11-06T14:55:09.676Z,33.10
2018-11-06T14:57:37.968Z,32.00
2018-11-06T15:00:12.470Z,31.40
2018-11-06T15:02:41.120Z,35.90
2018-11-06T15:05:09.409Z,36.23
2018-11-06T15:07:37.756Z,36.87
2018-11-06T15:10:07.560Z,32.10
2018-11-06T15:12:36.502Z,36.83
2018-11-06T15:15:06.332Z,38.47
2018-11-06T15:17:34.614Z,37.50
2018-11-06T15:20:03.098Z,36.67
2018-11-06T15:22:31.455Z,41.03
2018-11-06T15:24:59.958Z,36.40
2018-11-06T15:27:28.368Z,38.13
2018-11-06T15:29:56.603Z,38.53
2018-11-06T15:32:25.110Z,37.87
2018-11-06T15:34:53.340Z,41.40
2018-11-06T15:37:22.049Z,40.40
2018-11-06T15:39:50.744Z,34.90
2018-11-06T15:42:19.143Z,38.50
2018-11-06T15:44:47.526Z,37.43
2018-11-06T15:47:15.870Z,41.10
2018-11-06T15:49:44.305Z,35.50
2018-11-06T15:52:12.572Z,40.63
2018-11-06T15:54:40.914Z,39.60
2018-11-06T15:57:09.075Z,39.33
2018-11-06T15:59:37.401Z,39.43
2018-11-06T16:02:05.999Z,39.70
2018-11-06T16:04:34.365Z,44.90
2018-11-06T16:07:02.722Z,40.80
2018-11-06T16:09:31.045Z,42.80
2018-11-06T16:11:59.340Z,37.37
2018-11-06T16:14:28.389Z,34.23
2018-11-06T16:16:57.365Z,38.30
2018-11-06T16:19:25.853Z,45.67
2018-11-06T16:21:54.132Z,37.83
2018-11-06T16:24:22.365Z,39.40
2018-11-06T16:26:50.679Z,41.33
2018-11-06T16:29:18.990Z,41.07
2018-11-06T16:31:47.343Z,45.10
2018-11-06T16:34:15.628Z,37.00
2018-11-06T16:36:43.903Z,40.20
2018-11-06T16:39:13.157Z,44.57
2018-11-06T16:41:41.892Z,41.13
2018-11-06T16:44:10.161Z,41.27
2018-11-06T16:46:38.409Z,42.07
2018-11-06T16:49:06.937Z,41.30
2018-11-06T16:51:35.421Z,50.60
2018-11-06T16:54:03.627Z,39.67
2018-11-06T16:56:32.054Z,41.67
2018-11-06T16:59:00.390Z,42.77
2018-11-06T17:01:28.676Z,37.77
2018-11-06T17:03:57.008Z,40.93
2018-11-06T17:06:31.036Z,42.47
2018-11-06T17:08:59.515Z,43.60
2018-11-06T17:11:27.705Z,36.77
2018-11-06T17:13:55.968Z,42.70
2018-11-06T17:16:24.277Z,40.53
2018-11-06T17:18:52.604Z,49.30
2018-11-06T17:21:21.004Z,44.20
2018-11-06T17:23:49.743Z,42.33
2018-11-06T17:26:18.047Z,46.07
2018-11-06T17:28:46.546Z,44.40
2018-11-06T17:31:14.834Z,38.60
2018-11-06T17:33:43.026Z,42.10
2018-11-06T17:36:11.358Z,41.10
2018-11-06T17:38:39.660Z,39.20
2018-11-06T17:41:07.874Z,46.97
2018-11-06T17:43:36.303Z,47.17
2018-11-06T17:46:04.945Z,51.60
2018-11-06T17:48:33.406Z,43.10
2018-11-06T17:51:01.612Z,42.13
2018-11-06T17:53:29.866Z,41.33
2018-11-06T17:55:58.084Z,41.07
2018-11-06T17:58:26.618Z,46.20
2018-11-06T18:00:56.094Z,42.73
2018-11-06T18:03:24.434Z,50.27
2018-11-06T18:05:52.751Z,42.57
2018-11-06T18:08:21.354Z,45.97
2018-11-06T18:10:49.667Z,39.30
2018-11-06T18:13:18.036Z,46.47
2018-11-06T18:15:46.265Z,40.60
2018-11-06T18:18:15.184Z,46.67
2018-11-06T18:20:43.700Z,44.53
2018-11-06T18:23:12.018Z,48.17
2018-11-06T18:25:40.388Z,39.77
2018-11-06T18:28:08.494Z,45.03
2018-11-06T18:30:36.813Z,47.50
2018-11-06T18:33:05.281Z,55.73
2018-11-06T18:35:33.620Z,43.03
2018-11-06T18:38:01.881Z,45.20
2018-11-06T18:40:30.165Z,45.63
2018-11-06T18:42:58.374Z,48.13
2018-11-06T18:45:26.764Z,42.17
2018-11-06T18:47:55.154Z,45.03
2018-11-06T18:50:23.470Z,43.30
2018-11-06T18:52:52.094Z,47.23
2018-11-06T18:55:20.422Z,42.03
2018-11-06T18:57:48.714Z,45.17
2018-11-06T19:00:20.571Z,46.53
2018-11-06T19:02:50.213Z,48.20
2018-11-06T19:05:19.058Z,42.03
2018-11-06T19:07:47.552Z,42.70
2018-11-06T19:10:16.419Z,42.57
2018-11-06T19:12:44.923Z,41.60
2018-11-06T19:15:16.292Z,53.30
2018-11-06T19:17:45.828Z,47.57
2018-11-06T19:20:14.785Z,45.00
2018-11-06T19:22:43.171Z,48.10
2018-11-06T19:25:12.408Z,46.93
2018-11-06T19:27:41.089Z,41.60
2018-11-06T19:30:12.101Z,49.03
2018-11-06T19:32:40.728Z,53.43
2018-11-06T19:35:09.095Z,50.57
2018-11-06T19:37:38.131Z,47.40
2018-11-06T19:40:08.324Z,47.60
2018-11-06T19:42:37.686Z,51.40
2018-11-06T19:45:07.165Z,54.37
2018-11-06T19:47:35.515Z,47.93
2018-11-06T19:50:04.228Z,50.03
2018-11-06T19:52:32.626Z,47.90
2018-11-06T19:55:01.133Z,55.07
2018-11-06T19:57:29.504Z,59.10
2018-11-06T19:59:58.002Z,45.20
2018-11-06T20:02:26.957Z,60.07
2018-11-06T20:04:55.897Z,49.93
2018-11-06T20:07:24.283Z,47.10
2018-11-06T20:09:52.753Z,51.93
2018-11-06T20:12:21.290Z,54.00
2018-11-06T20:14:49.633Z,56.00
2018-11-06T20:17:18.094Z,57.17
2018-11-06T20:19:46.547Z,57.50
2018-11-06T20:22:14.835Z,50.07
2018-11-06T20:24:43.214Z,50.40
2018-11-06T20:27:11.742Z,49.73
2018-11-06T20:29:40.214Z,50.27
2018-11-06T20:32:08.649Z,57.33
2018-11-06T20:34:36.994Z,58.90
2018-11-06T20:37:05.479Z,57.23
2018-11-06T20:39:34.013Z,58.13
2018-11-06T20:42:02.739Z,55.60
2018-11-06T20:44:31.154Z,52.97
2018-11-06T20:47:00.058Z,59.43
2018-11-06T20:49:28.516Z,55.67
2018-11-06T20:51:56.795Z,53.00
2018-11-06T20:54:25.116Z,56.23
2018-11-06T20:56:53.551Z,56.70
2018-11-06T20:59:21.854Z,52.13
2018-11-06T21:01:50.214Z,52.57
2018-11-06T21:04:18.596Z,51.13
2018-11-06T21:06:53.641Z,60.13
2018-11-06T21:09:21.997Z,58.23
2018-11-06T21:11:51.374Z,52.07
2018-11-06T21:14:19.679Z,56.57
2018-11-06T21:16:47.994Z,52.47
2018-11-06T21:19:16.280Z,57.77
2018-11-06T21:21:44.549Z,52.60
2018-11-06T21:24:20.210Z,57.97
2018-11-06T21:26:48.751Z,56.73
2018-11-06T21:29:17.018Z,53.83
2018-11-06T21:31:45.392Z,55.10
2018-11-06T21:34:13.670Z,59.37
2018-11-06T21:36:41.998Z,54.27
2018-11-06T21:39:10.911Z,56.87
2018-11-06T21:41:39.227Z,50.20
2018-11-06T21:44:07.708Z,51.53
2018-11-06T21:46:36.022Z,56.90
2018-11-06T21:49:04.303Z,54.37
2018-11-06T21:51:38.994Z,54.00
2018-11-06T21:54:14.006Z,56.73
2018-11-06T21:56:42.272Z,54.47
2018-11-06T21:59:10.604Z,62.77
2018-11-06T22:01:38.816Z,50.17
2018-11-06T22:04:07.075Z,63.60
2018-11-06T22:06:35.366Z,52.60
2018-11-06T22:09:04.601Z,52.00
2018-11-06T22:11:32.908Z,50.43
2018-11-06T22:14:01.180Z,54.43
2018-11-06T22:16:29.450Z,58.30
2018-11-06T22:21:46.011Z,54.50
2018-11-06T22:24:14.157Z,51.67
2018-11-06T22:26:42.497Z,56.30
2018-11-06T22:29:10.741Z,59.73
2018-11-06T22:31:39.122Z,55.17
2018-11-06T22:34:07.472Z,63.63
2018-11-06T22:36:36.440Z,57.43
2018-11-06T22:39:07.206Z,60.83
2018-11-06T22:41:35.510Z,53.77
2018-11-06T22:44:03.837Z,53.73
2018-11-06T22:46:32.035Z,49.80
2018-11-06T22:49:00.319Z,50.90
2018-11-06T22:51:28.699Z,59.30
2018-11-06T22:53:56.980Z,55.17
2018-11-06T22:56:25.252Z,57.03
2018-11-06T22:58:53.559Z,50.20
2018-11-06T23:01:23.311Z,61.87
2018-11-06T23:03:51.886Z,53.97
2018-11-06T23:06:20.987Z,51.43
2018-11-06T23:08:49.169Z,57.53
2018-11-06T23:11:17.417Z,52.87
2018-11-06T23:13:45.708Z,53.37
2018-11-06T23:16:13.995Z,50.23
2018-11-06T23:18:42.247Z,64.60
2018-11-06T23:21:10.445Z,54.57
2018-11-06T23:23:38.783Z,60.10
2018-11-06T23:26:07.044Z,51.97
2018-11-06T23:28:35.255Z,70.33
2018-11-06T23:31:03.549Z,58.67
2018-11-06T23:33:31.799Z,56.10
2018-11-06T23:36:00.038Z,50.20
2018-11-06T23:38:28.395Z,52.30
2018-11-06T23:40:56.635Z,51.47
2018-11-06T23:43:24.881Z,61.13
2018-11-06T23:45:53.195Z,70.10
2018-11-06T23:48:22.215Z,57.17
2018-11-06T23:50:50.883Z,60.30
2018-11-06T23:53:21.490Z,56.17
2018-11-06T23:55:51.042Z,48.03
2018-11-06T23:58:19.876Z,59.03
